createdAt,value
2023-02-15T00:00:13.848Z,1.52
2023-02-15T00:02:41.825Z,1.60
2023-02-15T00:05:09.736Z,3.20
2023-02-15T00:07:37.356Z,1.60
2023-02-15T00:10:06.166Z,1.40
2023-02-15T00:12:33.850Z,2.37
2023-02-15T00:15:01.264Z,1.15
2023-02-15T00:17:29.969Z,0.52
2023-02-15T00:19:57.598Z,1.00
2023-02-15T00:22:25.241Z,0.20
2023-02-15T00:24:52.933Z,1.37
2023-02-15T00:27:20.343Z,0.70
2023-02-15T00:29:48.472Z,1.37
2023-02-15T00:32:16.449Z,0.43
2023-02-15T00:34:44.420Z,2.72
2023-02-15T00:37:12.245Z,1.30
2023-02-15T00:39:40.126Z,2.00
2023-02-15T00:42:07.657Z,0.25
2023-02-15T00:44:35.205Z,0.52
2023-02-15T00:47:03.042Z,0.62
2023-02-15T00:49:30.587Z,1.85
2023-02-15T00:51:58.186Z,1.75
2023-02-15T00:54:26.127Z,2.83
2023-02-15T00:56:53.681Z,2.20
2023-02-15T00:59:21.263Z,0.77
2023-02-15T01:01:49.196Z,0.98
2023-02-15T01:04:17.046Z,1.30
2023-02-15T01:06:44.452Z,1.23
2023-02-15T01:09:13.575Z,0.77
2023-02-15T01:11:40.952Z,1.20
2023-02-15T01:14:08.581Z,1.23
2023-02-15T01:16:39.541Z,1.37
2023-02-15T01:19:07.334Z,1.08
2023-02-15T01:21:35.638Z,0.50
2023-02-15T01:24:04.216Z,2.75
2023-02-15T01:26:31.769Z,1.55
2023-02-15T01:28:59.477Z,1.65
2023-02-15T01:31:27.793Z,2.78
2023-02-15T01:33:55.512Z,1.08
2023-02-15T01:36:23.171Z,0.45
2023-02-15T01:38:53.065Z,0.93
2023-02-15T01:41:28.218Z,0.88
2023-02-15T01:44:01.424Z,0.50
2023-02-15T01:46:34.415Z,0.35
2023-02-15T01:49:06.460Z,1.15
2023-02-15T01:51:36.272Z,1.87
2023-02-15T01:54:11.621Z,0.90
2023-02-15T01:56:40.273Z,1.40
2023-02-15T01:59:12.374Z,0.85
2023-02-15T02:01:40.161Z,0.60
2023-02-15T02:04:08.150Z,1.25
2023-02-15T02:06:36.961Z,1.37
2023-02-15T02:09:04.908Z,0.50
2023-02-15T02:11:34.395Z,0.88
2023-02-15T02:14:02.238Z,1.80
2023-02-15T02:16:37.694Z,2.85
2023-02-15T02:19:19.574Z,1.50
2023-02-15T02:22:33.217Z,0.40
2023-02-15T02:25:16.312Z,0.50
2023-02-15T02:28:03.977Z,1.42
2023-02-15T02:30:49.559Z,0.13
2023-02-15T02:33:19.747Z,0.80
2023-02-15T02:35:56.517Z,1.00
2023-02-15T02:38:45.887Z,1.60
2023-02-15T02:41:32.991Z,1.42
2023-02-15T02:44:26.055Z,0.10
2023-02-15T02:47:13.189Z,1.20
2023-02-15T02:49:45.135Z,0.30
2023-02-15T02:52:37.118Z,0.22
2023-02-15T02:55:08.618Z,0.90
2023-02-15T02:57:38.804Z,1.25
2023-02-15T03:02:41.133Z,0.47
2023-02-15T03:05:12.812Z,1.13
2023-02-15T03:07:42.206Z,0.20
2023-02-15T03:10:10.726Z,0.60
2023-02-15T03:12:41.744Z,1.75
2023-02-15T03:15:14.565Z,0.60
2023-02-15T03:20:35.196Z,0.47
2023-02-15T03:23:05.978Z,1.08
2023-02-15T03:25:34.920Z,1.23
2023-02-15T03:28:09.245Z,1.02
2023-02-15T03:30:38.473Z,0.73
2023-02-15T03:33:06.238Z,0.73
2023-02-15T03:36:05.310Z,0.22
2023-02-15T03:38:49.097Z,0.22
2023-02-15T03:41:18.250Z,0.13
2023-02-15T03:44:04.194Z,0.52
2023-02-15T03:46:41.470Z,0.62
2023-02-15T03:49:13.426Z,0.52
2023-02-15T03:51:43.966Z,1.95
2023-02-15T03:54:36.940Z,0.47
2023-02-15T04:00:09.433Z,0.73
2023-02-15T04:03:18.425Z,0.43
2023-02-15T04:05:46.410Z,1.45
2023-02-15T04:08:14.080Z,1.33
2023-02-15T04:10:54.462Z,1.17
2023-02-15T04:13:31.545Z,0.57
2023-02-15T04:16:06.365Z,1.02
2023-02-15T04:18:53.130Z,2.20
2023-02-15T04:21:40.243Z,0.10
2023-02-15T04:24:27.883Z,0.20
2023-02-15T04:26:56.888Z,1.20
2023-02-15T04:29:26.061Z,0.57
2023-02-15T04:31:55.103Z,1.37
2023-02-15T04:34:23.022Z,0.30
2023-02-15T04:36:51.294Z,0.10
2023-02-15T04:39:20.022Z,0.52
2023-02-15T04:41:48.830Z,1.98
2023-02-15T04:44:17.063Z,1.73
2023-02-15T04:46:44.680Z,0.65
2023-02-15T04:49:12.756Z,1.45
2023-02-15T04:51:40.609Z,0.93
2023-02-15T04:54:08.160Z,1.00
2023-02-15T04:56:38.769Z,1.12
2023-02-15T04:59:06.929Z,0.77
2023-02-15T05:01:34.449Z,1.67
2023-02-15T05:04:02.072Z,1.83
2023-02-15T05:06:29.969Z,0.62
2023-02-15T05:09:00.187Z,1.40
2023-02-15T05:11:28.368Z,1.77
2023-02-15T05:13:56.326Z,0.32
2023-02-15T05:16:24.274Z,0.43
2023-02-15T05:18:52.370Z,0.60
2023-02-15T05:21:20.751Z,0.60
2023-02-15T05:23:48.223Z,0.20
2023-02-15T05:26:42.728Z,3.53
2023-02-15T05:29:11.661Z,2.08
2023-02-15T05:31:39.319Z,0.80
2023-02-15T05:34:07.450Z,1.90
2023-02-15T05:36:35.253Z,2.72
2023-02-15T05:39:05.071Z,1.02
2023-02-15T05:41:32.687Z,3.55
2023-02-15T05:44:00.445Z,3.47
2023-02-15T05:46:27.912Z,0.62
2023-02-15T05:48:55.458Z,0.82
2023-02-15T05:51:23.728Z,1.10
2023-02-15T05:53:51.302Z,1.45
2023-02-15T05:56:19.212Z,1.30
2023-02-15T05:58:47.025Z,3.15
2023-02-15T06:01:18.161Z,1.10
2023-02-15T06:03:46.842Z,0.82
2023-02-15T06:06:14.600Z,1.08
2023-02-15T06:08:42.620Z,0.98
2023-02-15T06:11:13.453Z,2.30
2023-02-15T06:13:41.342Z,1.70
2023-02-15T06:16:08.938Z,1.58
2023-02-15T06:18:36.873Z,0.37
2023-02-15T06:21:04.502Z,2.53
2023-02-15T06:23:32.038Z,0.45
2023-02-15T06:25:59.930Z,1.85
2023-02-15T06:28:27.744Z,1.98
2023-02-15T06:30:55.405Z,1.67
2023-02-15T06:33:24.057Z,2.75
2023-02-15T06:35:51.836Z,2.45
2023-02-15T06:38:19.551Z,1.17
2023-02-15T06:40:47.723Z,0.62
2023-02-15T06:43:15.670Z,0.73
2023-02-15T06:45:43.377Z,1.00
2023-02-15T06:48:12.228Z,2.12
2023-02-15T06:50:39.769Z,3.33
2023-02-15T06:53:07.631Z,1.35
2023-02-15T06:55:35.529Z,0.98
2023-02-15T06:58:03.086Z,1.98
2023-02-15T07:00:30.527Z,0.55
2023-02-15T07:02:59.272Z,2.08
2023-02-15T07:05:32.248Z,0.82
2023-02-15T07:08:00.492Z,1.52
2023-02-15T07:10:28.611Z,1.48
2023-02-15T07:12:56.030Z,1.42
2023-02-15T07:15:23.981Z,2.35
2023-02-15T07:17:51.869Z,1.15
2023-02-15T07:20:21.549Z,3.75
2023-02-15T07:22:49.899Z,1.75
2023-02-15T07:25:18.355Z,1.90
2023-02-15T07:27:46.471Z,2.60
2023-02-15T07:30:18.006Z,2.80
2023-02-15T07:33:05.869Z,2.83
2023-02-15T07:35:34.743Z,2.00
2023-02-15T07:38:02.599Z,0.95
2023-02-15T07:40:32.288Z,1.70
2023-02-15T07:43:00.474Z,1.50
2023-02-15T07:45:28.403Z,1.00
2023-02-15T07:47:56.352Z,1.00
2023-02-15T07:50:24.602Z,2.30
2023-02-15T07:52:58.640Z,2.70
2023-02-15T07:55:49.433Z,1.27
2023-02-15T07:58:19.908Z,1.45
2023-02-15T08:01:02.773Z,1.35
2023-02-15T08:06:06.203Z,0.55
2023-02-15T08:08:38.691Z,0.32
2023-02-15T08:11:29.823Z,0.98
2023-02-15T08:14:09.458Z,1.10
2023-02-15T08:16:42.662Z,2.58
2023-02-15T08:19:30.461Z,1.67
2023-02-15T08:22:00.977Z,1.48
2023-02-15T08:24:30.924Z,0.68
2023-02-15T08:26:59.460Z,4.15
2023-02-15T08:29:29.111Z,2.53
2023-02-15T08:32:00.069Z,1.67
2023-02-15T08:34:27.686Z,2.65
2023-02-15T08:36:55.430Z,1.73
2023-02-15T08:39:23.535Z,0.88
2023-02-15T08:41:51.612Z,1.37
2023-02-15T08:44:20.332Z,1.77
2023-02-15T08:46:49.742Z,1.58
2023-02-15T08:49:20.060Z,2.55
2023-02-15T08:51:48.993Z,2.05
2023-02-15T08:54:19.253Z,1.92
2023-02-15T08:56:47.436Z,1.50
2023-02-15T08:59:19.020Z,3.78
2023-02-15T09:01:47.870Z,1.30
2023-02-15T09:04:17.101Z,0.75
2023-02-15T09:06:48.112Z,3.33
2023-02-15T09:09:17.845Z,3.60
2023-02-15T09:11:47.903Z,1.75
2023-02-15T09:14:19.229Z,1.35
2023-02-15T09:16:49.813Z,1.12
2023-02-15T09:19:19.557Z,0.98
2023-02-15T09:21:47.451Z,2.67
2023-02-15T09:24:16.461Z,3.37
2023-02-15T09:26:48.224Z,2.12
2023-02-15T09:29:17.548Z,2.58
2023-02-15T09:31:51.037Z,3.25
2023-02-15T09:34:21.187Z,0.30
2023-02-15T09:36:49.377Z,3.28
2023-02-15T09:39:21.618Z,3.30
2023-02-15T09:41:52.706Z,2.53
2023-02-15T09:44:26.623Z,1.27
2023-02-15T09:47:06.824Z,2.20
2023-02-15T09:49:50.530Z,4.78
2023-02-15T09:52:24.473Z,2.45
2023-02-15T09:55:13.346Z,1.52
2023-02-15T09:58:22.738Z,3.33
2023-02-15T10:00:55.955Z,2.95
2023-02-15T10:04:01.826Z,2.05
2023-02-15T10:06:45.413Z,3.42
2023-02-15T10:09:37.543Z,1.83
2023-02-15T10:12:15.133Z,2.03
2023-02-15T10:15:08.118Z,2.08
2023-02-15T10:17:53.920Z,2.08
2023-02-15T10:20:40.817Z,1.23
2023-02-15T10:23:27.253Z,1.35
2023-02-15T10:25:58.042Z,1.67
2023-02-15T10:28:39.725Z,2.47
2023-02-15T10:31:33.097Z,1.40
2023-02-15T10:34:19.976Z,3.30
2023-02-15T10:37:11.651Z,3.97
2023-02-15T10:40:09.892Z,2.83
2023-02-15T10:43:21.152Z,3.70
2023-02-15T10:45:55.937Z,2.15
2023-02-15T10:48:59.683Z,3.05
2023-02-15T10:51:33.003Z,3.25
2023-02-15T10:54:19.575Z,2.75
2023-02-15T10:56:56.350Z,2.10
2023-02-15T10:59:30.383Z,3.58
2023-02-15T11:02:11.740Z,2.58
2023-02-15T11:04:52.777Z,2.12
2023-02-15T11:07:27.311Z,3.53
2023-02-15T11:10:06.814Z,2.85
2023-02-15T11:12:34.615Z,3.03
2023-02-15T11:15:15.903Z,2.33
2023-02-15T11:17:48.278Z,1.25
2023-02-15T11:20:22.771Z,3.85
2023-02-15T11:22:51.947Z,3.35
2023-02-15T11:25:31.308Z,1.80
2023-02-15T11:27:59.899Z,2.83
2023-02-15T11:30:34.271Z,1.62
2023-02-15T11:33:05.032Z,3.78
2023-02-15T11:35:59.712Z,2.67
2023-02-15T11:41:03.420Z,3.10
2023-02-15T11:43:35.905Z,1.42
2023-02-15T11:46:04.192Z,0.82
2023-02-15T11:48:33.030Z,1.27
2023-02-15T11:51:02.069Z,3.28
2023-02-15T11:53:34.138Z,2.30
2023-02-15T11:56:01.832Z,3.20
2023-02-15T11:58:35.161Z,3.60
2023-02-15T12:01:38.083Z,4.40
2023-02-15T12:04:35.950Z,2.20
2023-02-15T12:07:26.663Z,2.35
2023-02-15T12:10:23.471Z,1.12
2023-02-15T12:13:10.373Z,1.95
2023-02-15T12:15:38.964Z,2.90
2023-02-15T12:18:07.544Z,3.17
2023-02-15T12:20:36.213Z,1.83
2023-02-15T12:23:05.697Z,2.62
2023-02-15T12:25:55.647Z,2.37
2023-02-15T12:28:34.128Z,3.05
2023-02-15T12:31:04.306Z,2.55
2023-02-15T12:33:37.375Z,2.05
2023-02-15T12:36:27.778Z,2.08
2023-02-15T12:39:10.163Z,2.78
2023-02-15T12:41:38.736Z,2.72
2023-02-15T12:44:20.164Z,1.60
2023-02-15T12:47:17.025Z,2.33
2023-02-15T12:49:47.878Z,1.62
2023-02-15T12:52:18.754Z,1.52
2023-02-15T12:54:47.262Z,2.75
2023-02-15T12:57:34.877Z,3.85
2023-02-15T13:00:26.705Z,2.15
2023-02-15T13:02:56.294Z,2.35
2023-02-15T13:05:44.075Z,2.12
2023-02-15T13:08:22.797Z,2.92
2023-02-15T13:10:57.362Z,2.65
2023-02-15T13:13:30.683Z,2.50
2023-02-15T13:16:01.937Z,1.30
2023-02-15T13:18:33.853Z,1.55
2023-02-15T13:21:36.336Z,1.73
2023-02-15T13:24:11.919Z,3.47
2023-02-15T13:26:41.705Z,0.95
2023-02-15T13:29:30.061Z,2.60
2023-02-15T13:32:00.636Z,1.70
2023-02-15T13:34:36.308Z,3.12
2023-02-15T13:37:16.192Z,1.65
2023-02-15T13:40:11.710Z,2.17
2023-02-15T13:42:44.063Z,1.62
2023-02-15T13:45:26.947Z,3.20
2023-02-15T13:48:05.780Z,3.12
2023-02-15T13:50:39.922Z,1.95
2023-02-15T13:53:40.820Z,1.80
2023-02-15T13:56:35.321Z,2.20
2023-02-15T13:59:41.489Z,1.83
2023-02-15T14:02:12.514Z,1.85
2023-02-15T14:04:43.549Z,0.98
2023-02-15T14:07:29.664Z,2.53
2023-02-15T14:10:11.145Z,1.83
2023-02-15T14:12:52.192Z,3.33
2023-02-15T14:15:41.870Z,1.25
2023-02-15T14:18:26.582Z,2.17
2023-02-15T14:21:14.983Z,1.12
2023-02-15T14:24:13.179Z,3.10
2023-02-15T14:26:56.468Z,2.28
2023-02-15T14:29:41.939Z,1.85
2023-02-15T14:32:16.471Z,1.62
2023-02-15T14:34:51.669Z,3.05
2023-02-15T14:37:26.029Z,3.30
2023-02-15T14:40:50.188Z,2.55
2023-02-15T14:43:42.779Z,4.70
2023-02-15T14:46:16.494Z,3.83
2023-02-15T14:48:48.775Z,3.00
2023-02-15T14:51:44.845Z,3.40
2023-02-15T14:54:19.025Z,2.05
2023-02-15T14:56:47.441Z,1.65
2023-02-15T14:59:17.730Z,3.25
2023-02-15T15:01:57.183Z,2.47
2023-02-15T15:04:41.490Z,3.67
2023-02-15T15:07:22.348Z,3.83
2023-02-15T15:10:18.487Z,1.50
2023-02-15T15:12:52.034Z,2.87
2023-02-15T15:15:32.189Z,1.95
2023-02-15T15:18:01.100Z,2.83
2023-02-15T15:20:51.744Z,1.67
2023-02-15T15:23:19.829Z,2.33
2023-02-15T15:25:58.349Z,1.80
2023-02-15T15:28:38.700Z,2.85
2023-02-15T15:31:18.596Z,1.67
2023-02-15T15:33:58.731Z,1.58
2023-02-15T15:36:48.635Z,2.85
2023-02-15T15:39:25.000Z,1.90
2023-02-15T15:42:10.418Z,1.23
2023-02-15T15:44:56.579Z,3.08
2023-02-15T15:47:27.372Z,1.77
2023-02-15T15:49:59.506Z,1.37
2023-02-15T15:55:03.912Z,1.33
2023-02-15T15:57:39.669Z,3.12
2023-02-15T16:00:24.397Z,0.85
2023-02-15T16:02:53.511Z,3.08
2023-02-15T16:05:21.295Z,3.08
2023-02-15T16:07:50.110Z,3.60
2023-02-15T16:10:27.789Z,2.20
2023-02-15T16:12:55.907Z,2.00
2023-02-15T16:15:26.260Z,3.40
2023-02-15T16:17:56.389Z,2.33
2023-02-15T16:20:38.179Z,2.53
2023-02-15T16:23:18.470Z,4.85
2023-02-15T16:26:05.567Z,2.17
2023-02-15T16:28:33.361Z,2.40
2023-02-15T16:31:13.878Z,2.60
2023-02-15T16:33:42.941Z,1.15
2023-02-15T16:36:23.968Z,2.87
2023-02-15T16:38:51.550Z,2.30
2023-02-15T16:41:23.403Z,1.17
2023-02-15T16:43:52.046Z,2.83
2023-02-15T16:46:35.028Z,5.28
2023-02-15T16:51:34.211Z,4.78
2023-02-15T16:54:09.193Z,2.95
2023-02-15T16:56:37.546Z,3.70
2023-02-15T16:59:07.037Z,6.40
2023-02-15T17:01:35.390Z,6.30
2023-02-15T17:04:28.945Z,13.62
2023-02-15T17:07:20.889Z,9.05
2023-02-15T17:09:57.254Z,9.50
2023-02-15T17:12:56.920Z,8.80
2023-02-15T17:15:35.106Z,5.05
2023-02-15T17:18:18.823Z,5.78
2023-02-15T17:20:48.754Z,3.22
2023-02-15T17:23:32.053Z,2.10
2023-02-15T17:26:02.092Z,5.03
2023-02-15T17:28:31.872Z,5.70
2023-02-15T17:31:00.637Z,2.92
2023-02-15T17:33:34.346Z,6.00
2023-02-15T17:36:14.788Z,4.70
2023-02-15T17:39:01.910Z,3.15
2023-02-15T17:41:32.233Z,4.30
2023-02-15T17:43:59.777Z,3.55
2023-02-15T17:46:29.477Z,4.10
2023-02-15T17:48:57.760Z,3.92
2023-02-15T17:51:25.274Z,4.12
2023-02-15T17:54:11.624Z,3.37
2023-02-15T17:56:39.954Z,3.53
2023-02-15T17:59:07.629Z,5.93
2023-02-15T18:02:06.946Z,2.85
2023-02-15T18:04:55.154Z,7.57
2023-02-15T18:07:41.187Z,3.50
2023-02-15T18:10:37.062Z,3.87
2023-02-15T18:13:05.013Z,4.47
2023-02-15T18:15:33.045Z,3.75
2023-02-15T18:18:00.648Z,3.58
2023-02-15T18:20:32.973Z,5.05
2023-02-15T18:23:02.332Z,7.80
2023-02-15T18:25:30.050Z,4.57
2023-02-15T18:27:57.958Z,3.78
2023-02-15T18:30:27.053Z,3.33
2023-02-15T18:32:57.817Z,7.50
2023-02-15T18:35:29.211Z,3.15
2023-02-15T18:37:58.596Z,4.03
2023-02-15T18:40:27.543Z,7.32
2023-02-15T18:42:57.099Z,4.72
2023-02-15T18:45:28.740Z,5.75
2023-02-15T18:47:56.275Z,5.10
2023-02-15T18:50:25.275Z,4.03
2023-02-15T18:52:53.436Z,4.72
2023-02-15T18:55:23.974Z,4.47
2023-02-15T18:57:53.198Z,6.57
2023-02-15T19:00:28.449Z,5.00
2023-02-15T19:02:57.317Z,7.07
2023-02-15T19:05:29.818Z,7.85
2023-02-15T19:07:59.005Z,6.22
2023-02-15T19:10:28.814Z,5.32
2023-02-15T19:12:56.801Z,7.30
2023-02-15T19:15:30.629Z,4.90
2023-02-15T19:17:59.856Z,8.65
2023-02-15T19:20:51.867Z,9.20
2023-02-15T19:23:23.843Z,6.03
2023-02-15T19:25:52.547Z,8.48
2023-02-15T19:28:40.503Z,5.78
2023-02-15T19:31:12.109Z,8.40
2023-02-15T19:36:15.142Z,3.35
2023-02-15T19:38:44.005Z,7.40
2023-02-15T19:41:23.892Z,7.85
2023-02-15T19:43:53.292Z,6.35
2023-02-15T19:46:21.918Z,5.43
2023-02-15T19:48:51.075Z,8.23
2023-02-15T19:51:20.448Z,6.30
2023-02-15T19:53:49.274Z,9.80
2023-02-15T19:56:24.450Z,4.95
2023-02-15T19:58:52.260Z,5.15
2023-02-15T20:01:19.816Z,8.23
2023-02-15T20:03:47.622Z,6.03
2023-02-15T20:06:15.646Z,7.93
2023-02-15T20:08:43.878Z,4.32
2023-02-15T20:11:13.541Z,4.45
2023-02-15T20:13:41.034Z,5.03
2023-02-15T20:16:09.845Z,5.07
2023-02-15T20:18:37.722Z,5.50
2023-02-15T20:21:05.902Z,5.62
2023-02-15T20:23:36.797Z,4.60
2023-02-15T20:26:17.575Z,6.12
2023-02-15T20:28:46.320Z,4.35
2023-02-15T20:31:18.775Z,1.48
2023-02-15T20:36:19.686Z,3.50
2023-02-15T20:38:47.393Z,2.95
2023-02-15T20:41:35.938Z,2.45
2023-02-15T20:44:18.645Z,1.60
2023-02-15T20:46:47.349Z,6.72
2023-02-15T20:49:14.901Z,1.83
2023-02-15T20:51:44.390Z,4.62
2023-02-15T20:54:17.213Z,5.25
2023-02-15T20:56:45.802Z,3.28
2023-02-15T20:59:21.149Z,3.40
2023-02-15T21:01:49.938Z,3.80
2023-02-15T21:04:24.203Z,3.58
2023-02-15T21:06:51.731Z,3.90
2023-02-15T21:09:19.962Z,5.12
2023-02-15T21:11:48.262Z,3.80
2023-02-15T21:14:21.457Z,3.42
2023-02-15T21:16:50.090Z,2.70
2023-02-15T21:19:20.372Z,5.70
2023-02-15T21:21:49.266Z,6.25
2023-02-15T21:24:27.155Z,6.78
2023-02-15T21:26:56.337Z,9.48
2023-02-15T21:29:27.152Z,4.90
2023-02-15T21:31:55.036Z,2.35
2023-02-15T21:34:23.078Z,9.07
2023-02-15T21:36:50.882Z,4.65
2023-02-15T21:39:26.900Z,5.47
2023-02-15T21:42:13.862Z,2.35
2023-02-15T21:45:00.071Z,4.40
2023-02-15T21:47:50.954Z,5.03
2023-02-15T21:50:40.225Z,4.22
2023-02-15T21:53:13.742Z,5.37
2023-02-15T21:55:45.798Z,4.32
2023-02-15T22:12:19.662Z,2.80
2023-02-15T22:26:48.808Z,1.50
2023-02-15T22:34:26.608Z,1.55
2023-02-15T22:40:16.427Z,1.62
2023-02-15T22:42:50.296Z,3.50
2023-02-15T22:45:24.140Z,2.12
2023-02-15T22:58:19.000Z,6.60
2023-02-15T23:05:02.853Z,2.50
2023-02-15T23:08:23.284Z,4.20
2023-02-15T23:11:35.521Z,5.80
2023-02-15T23:15:13.430Z,1.75
2023-02-15T23:40:09.821Z,1.00
2023-02-15T23:46:22.007Z,1.48
2023-02-15T23:49:24.437Z,5.10
2023-02-15T23:52:15.435Z,0.30
2023-02-15T23:55:09.708Z,0.95
2023-02-15T23:58:02.957Z,2.25
